Tice, Illinois
Current Conditions -  °F | °C
As of 8:52 AM on Wednesday 22 Oct 2014 (Local Time) from KSPI Reporting Station
Clear Clear  
Wind Chill: 40°   Ceiling: Unl
Heat Index: 44°   Visibility: 10mi
Dew Point: 39°   Wind: 7mph
Humidity: 82%   Direction: 90°E
Pressure: 30.34"   Gusts: NA
Location:  40.0452°N, 89.8548°W
Report Text: KSPI 221352Z 09006KT 10SM CLR 07/04 A3034 RMK AO2 SLP276 T00670039
Loading
Personal Weather Stations






























Interactive Weather Map
Tropical Storm Tracking
New forecast layout! Learn more

10-Day Weather Forecast

Advertisements
Track Severe Weather on mobile